sensor_id;sensor_type;location;lat;lon;timestamp;P1;durP1;ratioP1;P2;durP2;ratioP2
68484;SDS011;55472;50.060;21.960;2022-10-17T00:02:00;11.25;;;4.40;;
68484;SDS011;55472;50.060;21.960;2022-10-17T00:04:25;8.40;;;4.20;;
68484;SDS011;55472;50.060;21.960;2022-10-17T00:06:51;8.13;;;4.20;;
68484;SDS011;55472;50.060;21.960;2022-10-17T00:09:17;11.30;;;4.60;;
68484;SDS011;55472;50.060;21.960;2022-10-17T00:11:43;9.43;;;4.47;;
68484;SDS011;55472;50.060;21.960;2022-10-17T00:14:09;8.23;;;3.73;;
68484;SDS011;55472;50.060;21.960;2022-10-17T00:16:35;8.68;;;4.30;;
68484;SDS011;55472;50.060;21.960;2022-10-17T00:19:02;11.52;;;4.35;;
68484;SDS011;55472;50.060;21.960;2022-10-17T00:21:30;10.65;;;4.50;;
68484;SDS011;55472;50.060;21.960;2022-10-17T00:23:57;13.73;;;4.35;;
68484;SDS011;55472;50.060;21.960;2022-10-17T00:26:24;12.13;;;4.43;;
68484;SDS011;55472;50.060;21.960;2022-10-17T00:28:51;10.93;;;4.43;;
68484;SDS011;55472;50.060;21.960;2022-10-17T00:31:18;10.32;;;4.60;;
68484;SDS011;55472;50.060;21.960;2022-10-17T00:33:46;9.95;;;4.53;;
68484;SDS011;55472;50.060;21.960;2022-10-17T00:36:13;9.32;;;4.35;;
68484;SDS011;55472;50.060;21.960;2022-10-17T00:38:48;9.47;;;4.03;;
68484;SDS011;55472;50.060;21.960;2022-10-17T00:41:18;11.75;;;4.47;;
68484;SDS011;55472;50.060;21.960;2022-10-17T00:43:48;9.48;;;4.25;;
68484;SDS011;55472;50.060;21.960;2022-10-17T00:46:26;9.07;;;4.30;;
68484;SDS011;55472;50.060;21.960;2022-10-17T00:48:58;10.40;;;4.55;;
68484;SDS011;55472;50.060;21.960;2022-10-17T00:54:41;8.27;;;4.47;;
68484;SDS011;55472;50.060;21.960;2022-10-17T00:57:13;8.68;;;4.13;;
68484;SDS011;55472;50.060;21.960;2022-10-17T00:59:40;8.75;;;4.20;;
68484;SDS011;55472;50.060;21.960;2022-10-17T01:02:10;10.32;;;4.40;;
68484;SDS011;55472;50.060;21.960;2022-10-17T01:04:39;11.20;;;4.23;;
68484;SDS011;55472;50.060;21.960;2022-10-17T01:07:09;9.77;;;4.47;;
68484;SDS011;55472;50.060;21.960;2022-10-17T01:09:35;8.73;;;4.55;;
68484;SDS011;55472;50.060;21.960;2022-10-17T01:14:57;10.98;;;4.13;;
68484;SDS011;55472;50.060;21.960;2022-10-17T01:29:58;9.55;;;4.53;;
68484;SDS011;55472;50.060;21.960;2022-10-17T01:33:10;10.00;;;4.33;;
68484;SDS011;55472;50.060;21.960;2022-10-17T01:47:28;11.00;;;4.40;;
68484;SDS011;55472;50.060;21.960;2022-10-17T01:49:58;9.07;;;4.50;;
68484;SDS011;55472;50.060;21.960;2022-10-17T01:52:32;9.30;;;4.60;;
68484;SDS011;55472;50.060;21.960;2022-10-17T01:55:10;9.20;;;4.60;;
68484;SDS011;55472;50.060;21.960;2022-10-17T01:57:43;10.80;;;5.07;;
68484;SDS011;55472;50.060;21.960;2022-10-17T02:00:16;10.17;;;4.67;;
68484;SDS011;55472;50.060;21.960;2022-10-17T02:02:46;9.65;;;4.20;;
68484;SDS011;55472;50.060;21.960;2022-10-17T02:05:17;13.02;;;4.80;;
68484;SDS011;55472;50.060;21.960;2022-10-17T02:07:48;12.23;;;4.65;;
68484;SDS011;55472;50.060;21.960;2022-10-17T02:10:17;12.63;;;5.38;;
68484;SDS011;55472;50.060;21.960;2022-10-17T02:12:58;12.07;;;4.60;;
68484;SDS011;55472;50.060;21.960;2022-10-17T02:21:50;8.30;;;4.70;;
68484;SDS011;55472;50.060;21.960;2022-10-17T02:24:45;8.50;;;4.40;;
68484;SDS011;55472;50.060;21.960;2022-10-17T02:30:34;9.25;;;4.15;;
68484;SDS011;55472;50.060;21.960;2022-10-17T02:33:28;9.82;;;4.72;;
68484;SDS011;55472;50.060;21.960;2022-10-17T02:36:19;9.35;;;4.88;;
68484;SDS011;55472;50.060;21.960;2022-10-17T02:38:50;9.93;;;4.55;;
68484;SDS011;55472;50.060;21.960;2022-10-17T02:41:19;12.47;;;4.73;;
68484;SDS011;55472;50.060;21.960;2022-10-17T02:43:48;9.93;;;5.07;;
68484;SDS011;55472;50.060;21.960;2022-10-17T02:46:15;8.98;;;4.20;;
68484;SDS011;55472;50.060;21.960;2022-10-17T02:48:47;10.65;;;4.95;;
68484;SDS011;55472;50.060;21.960;2022-10-17T02:56:52;10.30;;;5.03;;
68484;SDS011;55472;50.060;21.960;2022-10-17T02:59:24;10.25;;;4.20;;
68484;SDS011;55472;50.060;21.960;2022-10-17T03:01:51;10.45;;;4.57;;
68484;SDS011;55472;50.060;21.960;2022-10-17T03:04:17;11.88;;;4.82;;
68484;SDS011;55472;50.060;21.960;2022-10-17T03:06:45;10.77;;;4.63;;
68484;SDS011;55472;50.060;21.960;2022-10-17T03:09:13;11.67;;;5.10;;
68484;SDS011;55472;50.060;21.960;2022-10-17T03:11:40;10.90;;;4.72;;
68484;SDS011;55472;50.060;21.960;2022-10-17T03:14:06;9.63;;;4.57;;
68484;SDS011;55472;50.060;21.960;2022-10-17T03:16:32;10.27;;;4.80;;
68484;SDS011;55472;50.060;21.960;2022-10-17T03:18:58;9.73;;;4.57;;
68484;SDS011;55472;50.060;21.960;2022-10-17T03:21:24;10.30;;;4.17;;
68484;SDS011;55472;50.060;21.960;2022-10-17T03:23:50;11.90;;;4.93;;
68484;SDS011;55472;50.060;21.960;2022-10-17T03:26:16;9.88;;;5.03;;
68484;SDS011;55472;50.060;21.960;2022-10-17T03:28:42;11.50;;;4.80;;
68484;SDS011;55472;50.060;21.960;2022-10-17T03:31:12;10.45;;;4.90;;
68484;SDS011;55472;50.060;21.960;2022-10-17T03:33:41;10.80;;;5.03;;
68484;SDS011;55472;50.060;21.960;2022-10-17T03:36:07;8.27;;;4.40;;
68484;SDS011;55472;50.060;21.960;2022-10-17T03:38:37;10.02;;;5.53;;
68484;SDS011;55472;50.060;21.960;2022-10-17T03:41:04;9.07;;;4.40;;
68484;SDS011;55472;50.060;21.960;2022-10-17T03:43:30;9.65;;;4.60;;
68484;SDS011;55472;50.060;21.960;2022-10-17T03:45:57;10.45;;;4.85;;
68484;SDS011;55472;50.060;21.960;2022-10-17T03:48:25;17.30;;;5.97;;
68484;SDS011;55472;50.060;21.960;2022-10-17T03:51:03;10.73;;;5.22;;
68484;SDS011;55472;50.060;21.960;2022-10-17T03:53:32;12.10;;;4.90;;
68484;SDS011;55472;50.060;21.960;2022-10-17T03:56:09;7.75;;;3.97;;
68484;SDS011;55472;50.060;21.960;2022-10-17T03:58:45;10.10;;;4.88;;
68484;SDS011;55472;50.060;21.960;2022-10-17T04:01:12;10.27;;;4.60;;
68484;SDS011;55472;50.060;21.960;2022-10-17T04:03:40;8.82;;;4.45;;
68484;SDS011;55472;50.060;21.960;2022-10-17T04:06:07;10.30;;;5.13;;
68484;SDS011;55472;50.060;21.960;2022-10-17T04:08:37;10.60;;;4.80;;
68484;SDS011;55472;50.060;21.960;2022-10-17T04:11:04;10.00;;;5.00;;
68484;SDS011;55472;50.060;21.960;2022-10-17T04:13:32;10.52;;;4.82;;
68484;SDS011;55472;50.060;21.960;2022-10-17T04:16:01;22.25;;;5.65;;
68484;SDS011;55472;50.060;21.960;2022-10-17T04:18:32;10.93;;;5.00;;
68484;SDS011;55472;50.060;21.960;2022-10-17T04:21:05;11.23;;;4.60;;
68484;SDS011;55472;50.060;21.960;2022-10-17T04:23:32;12.07;;;5.10;;
68484;SDS011;55472;50.060;21.960;2022-10-17T04:25:59;11.02;;;4.80;;
68484;SDS011;55472;50.060;21.960;2022-10-17T04:28:27;12.35;;;5.20;;
68484;SDS011;55472;50.060;21.960;2022-10-17T04:30:58;16.65;;;5.40;;
68484;SDS011;55472;50.060;21.960;2022-10-17T04:33:25;13.10;;;5.33;;
68484;SDS011;55472;50.060;21.960;2022-10-17T04:38:26;11.52;;;5.30;;
68484;SDS011;55472;50.060;21.960;2022-10-17T04:41:03;11.23;;;5.78;;
68484;SDS011;55472;50.060;21.960;2022-10-17T04:43:31;12.23;;;5.45;;
68484;SDS011;55472;50.060;21.960;2022-10-17T04:46:02;15.03;;;5.43;;
68484;SDS011;55472;50.060;21.960;2022-10-17T04:48:34;12.73;;;5.72;;
68484;SDS011;55472;50.060;21.960;2022-10-17T04:51:01;13.88;;;5.32;;
68484;SDS011;55472;50.060;21.960;2022-10-17T04:53:33;11.52;;;5.70;;
68484;SDS011;55472;50.060;21.960;2022-10-17T04:56:01;11.63;;;5.28;;
68484;SDS011;55472;50.060;21.960;2022-10-17T04:58:33;11.83;;;5.77;;
68484;SDS011;55472;50.060;21.960;2022-10-17T05:01:03;8.65;;;4.63;;
68484;SDS011;55472;50.060;21.960;2022-10-17T05:03:34;10.82;;;4.97;;
68484;SDS011;55472;50.060;21.960;2022-10-17T05:06:07;11.23;;;4.97;;
68484;SDS011;55472;50.060;21.960;2022-10-17T05:08:36;11.52;;;4.88;;
68484;SDS011;55472;50.060;21.960;2022-10-17T05:11:03;14.50;;;5.23;;
68484;SDS011;55472;50.060;21.960;2022-10-17T05:13:30;10.88;;;5.00;;
68484;SDS011;55472;50.060;21.960;2022-10-17T05:15:58;10.30;;;4.97;;
68484;SDS011;55472;50.060;21.960;2022-10-17T05:18:25;9.35;;;4.88;;
68484;SDS011;55472;50.060;21.960;2022-10-17T05:20:52;13.77;;;5.00;;
68484;SDS011;55472;50.060;21.960;2022-10-17T05:23:18;11.70;;;4.90;;
68484;SDS011;55472;50.060;21.960;2022-10-17T05:25:44;11.32;;;5.15;;
68484;SDS011;55472;50.060;21.960;2022-10-17T05:28:10;9.88;;;5.22;;
68484;SDS011;55472;50.060;21.960;2022-10-17T05:30:36;12.77;;;5.30;;
68484;SDS011;55472;50.060;21.960;2022-10-17T05:33:02;10.40;;;4.77;;
68484;SDS011;55472;50.060;21.960;2022-10-17T05:35:28;13.50;;;5.35;;
68484;SDS011;55472;50.060;21.960;2022-10-17T05:37:54;10.45;;;4.40;;
68484;SDS011;55472;50.060;21.960;2022-10-17T05:40:20;9.88;;;5.10;;
68484;SDS011;55472;50.060;21.960;2022-10-17T05:42:46;11.03;;;5.23;;
68484;SDS011;55472;50.060;21.960;2022-10-17T05:45:13;11.43;;;5.10;;
68484;SDS011;55472;50.060;21.960;2022-10-17T05:47:40;11.52;;;5.28;;
68484;SDS011;55472;50.060;21.960;2022-10-17T05:50:06;11.85;;;5.03;;
68484;SDS011;55472;50.060;21.960;2022-10-17T05:52:33;9.18;;;4.60;;
68484;SDS011;55472;50.060;21.960;2022-10-17T05:54:59;11.50;;;5.27;;
68484;SDS011;55472;50.060;21.960;2022-10-17T05:57:25;9.88;;;5.22;;
68484;SDS011;55472;50.060;21.960;2022-10-17T05:59:51;11.48;;;5.25;;
68484;SDS011;55472;50.060;21.960;2022-10-17T06:02:17;13.03;;;5.10;;
68484;SDS011;55472;50.060;21.960;2022-10-17T06:04:43;9.73;;;5.00;;
68484;SDS011;55472;50.060;21.960;2022-10-17T06:07:14;11.93;;;4.93;;
68484;SDS011;55472;50.060;21.960;2022-10-17T06:09:41;10.25;;;4.78;;
68484;SDS011;55472;50.060;21.960;2022-10-17T06:12:07;9.80;;;4.80;;
68484;SDS011;55472;50.060;21.960;2022-10-17T06:14:33;9.63;;;4.77;;
68484;SDS011;55472;50.060;21.960;2022-10-17T06:16:59;11.25;;;4.88;;
68484;SDS011;55472;50.060;21.960;2022-10-17T06:19:25;10.88;;;5.13;;
68484;SDS011;55472;50.060;21.960;2022-10-17T06:21:51;10.05;;;4.78;;
68484;SDS011;55472;50.060;21.960;2022-10-17T06:24:17;14.60;;;5.60;;
68484;SDS011;55472;50.060;21.960;2022-10-17T06:26:43;14.30;;;5.50;;
68484;SDS011;55472;50.060;21.960;2022-10-17T06:29:11;14.18;;;5.10;;
68484;SDS011;55472;50.060;21.960;2022-10-17T06:31:37;11.50;;;5.30;;
68484;SDS011;55472;50.060;21.960;2022-10-17T06:34:03;10.68;;;4.75;;
68484;SDS011;55472;50.060;21.960;2022-10-17T06:36:29;11.80;;;5.93;;
68484;SDS011;55472;50.060;21.960;2022-10-17T06:38:55;10.88;;;4.70;;
68484;SDS011;55472;50.060;21.960;2022-10-17T06:41:21;11.25;;;4.90;;
68484;SDS011;55472;50.060;21.960;2022-10-17T06:43:47;11.98;;;5.05;;
68484;SDS011;55472;50.060;21.960;2022-10-17T06:46:14;14.63;;;6.10;;
68484;SDS011;55472;50.060;21.960;2022-10-17T06:48:42;11.57;;;5.03;;
68484;SDS011;55472;50.060;21.960;2022-10-17T06:51:09;13.73;;;4.67;;
68484;SDS011;55472;50.060;21.960;2022-10-17T06:53:36;10.97;;;4.30;;
68484;SDS011;55472;50.060;21.960;2022-10-17T06:56:04;11.40;;;4.10;;
68484;SDS011;55472;50.060;21.960;2022-10-17T06:58:33;10.75;;;4.05;;
68484;SDS011;55472;50.060;21.960;2022-10-17T07:01:03;12.88;;;4.32;;
68484;SDS011;55472;50.060;21.960;2022-10-17T07:03:35;10.95;;;5.05;;
68484;SDS011;55472;50.060;21.960;2022-10-17T07:06:02;9.48;;;5.32;;
68484;SDS011;55472;50.060;21.960;2022-10-17T07:08:29;9.00;;;4.40;;
68484;SDS011;55472;50.060;21.960;2022-10-17T07:10:55;10.50;;;4.43;;
68484;SDS011;55472;50.060;21.960;2022-10-17T07:13:22;9.20;;;4.13;;
68484;SDS011;55472;50.060;21.960;2022-10-17T07:15:48;9.13;;;3.78;;
68484;SDS011;55472;50.060;21.960;2022-10-17T07:18:14;8.57;;;4.03;;
68484;SDS011;55472;50.060;21.960;2022-10-17T07:20:40;8.77;;;4.33;;
68484;SDS011;55472;50.060;21.960;2022-10-17T07:23:06;11.15;;;4.15;;
68484;SDS011;55472;50.060;21.960;2022-10-17T07:25:32;7.82;;;3.83;;
68484;SDS011;55472;50.060;21.960;2022-10-17T07:27:58;9.40;;;4.50;;
68484;SDS011;55472;50.060;21.960;2022-10-17T07:30:24;8.70;;;4.20;;
68484;SDS011;55472;50.060;21.960;2022-10-17T07:32:51;9.48;;;4.28;;
68484;SDS011;55472;50.060;21.960;2022-10-17T07:35:18;9.90;;;4.22;;
68484;SDS011;55472;50.060;21.960;2022-10-17T07:37:45;11.05;;;4.38;;
68484;SDS011;55472;50.060;21.960;2022-10-17T07:40:11;11.03;;;5.00;;
68484;SDS011;55472;50.060;21.960;2022-10-17T07:42:37;7.68;;;4.10;;
68484;SDS011;55472;50.060;21.960;2022-10-17T07:45:03;7.32;;;3.92;;
68484;SDS011;55472;50.060;21.960;2022-10-17T07:47:33;10.05;;;4.55;;
68484;SDS011;55472;50.060;21.960;2022-10-17T07:50:02;12.63;;;5.00;;
68484;SDS011;55472;50.060;21.960;2022-10-17T07:52:30;11.18;;;4.20;;
68484;SDS011;55472;50.060;21.960;2022-10-17T07:54:55;8.48;;;4.20;;
68484;SDS011;55472;50.060;21.960;2022-10-17T07:57:21;9.40;;;4.90;;
68484;SDS011;55472;50.060;21.960;2022-10-17T07:59:47;11.23;;;4.20;;
68484;SDS011;55472;50.060;21.960;2022-10-17T08:02:25;8.75;;;4.10;;
68484;SDS011;55472;50.060;21.960;2022-10-17T08:04:52;7.97;;;4.22;;
68484;SDS011;55472;50.060;21.960;2022-10-17T08:07:19;10.27;;;4.70;;
68484;SDS011;55472;50.060;21.960;2022-10-17T08:09:45;12.00;;;4.93;;
68484;SDS011;55472;50.060;21.960;2022-10-17T08:12:12;8.30;;;4.10;;
68484;SDS011;55472;50.060;21.960;2022-10-17T08:14:39;10.60;;;5.75;;
68484;SDS011;55472;50.060;21.960;2022-10-17T08:17:06;9.23;;;4.50;;
68484;SDS011;55472;50.060;21.960;2022-10-17T08:19:33;8.25;;;4.50;;
68484;SDS011;55472;50.060;21.960;2022-10-17T08:21:59;10.65;;;4.50;;
68484;SDS011;55472;50.060;21.960;2022-10-17T08:24:26;9.00;;;4.43;;
68484;SDS011;55472;50.060;21.960;2022-10-17T08:26:52;9.48;;;4.80;;
68484;SDS011;55472;50.060;21.960;2022-10-17T08:29:18;10.93;;;4.82;;
68484;SDS011;55472;50.060;21.960;2022-10-17T08:31:44;10.40;;;5.00;;
68484;SDS011;55472;50.060;21.960;2022-10-17T08:34:10;9.90;;;4.60;;
68484;SDS011;55472;50.060;21.960;2022-10-17T08:36:36;8.23;;;4.10;;
68484;SDS011;55472;50.060;21.960;2022-10-17T08:39:02;8.55;;;4.10;;
68484;SDS011;55472;50.060;21.960;2022-10-17T08:41:38;14.75;;;4.10;;
68484;SDS011;55472;50.060;21.960;2022-10-17T08:46:47;7.17;;;3.90;;
68484;SDS011;55472;50.060;21.960;2022-10-17T08:49:21;9.50;;;4.57;;
68484;SDS011;55472;50.060;21.960;2022-10-17T08:52:14;11.70;;;4.40;;
68484;SDS011;55472;50.060;21.960;2022-10-17T08:54:59;10.52;;;4.55;;
68484;SDS011;55472;50.060;21.960;2022-10-17T08:57:25;10.50;;;4.70;;
68484;SDS011;55472;50.060;21.960;2022-10-17T08:59:52;9.10;;;3.80;;
68484;SDS011;55472;50.060;21.960;2022-10-17T09:02:41;9.23;;;4.03;;
68484;SDS011;55472;50.060;21.960;2022-10-17T09:08:15;8.93;;;4.00;;
68484;SDS011;55472;50.060;21.960;2022-10-17T09:14:38;8.13;;;4.53;;
68484;SDS011;55472;50.060;21.960;2022-10-17T09:18:06;8.73;;;4.55;;
68484;SDS011;55472;50.060;21.960;2022-10-17T09:20:55;8.40;;;4.38;;
68484;SDS011;55472;50.060;21.960;2022-10-17T09:23:44;11.57;;;5.70;;
68484;SDS011;55472;50.060;21.960;2022-10-17T09:26:21;10.55;;;5.00;;
68484;SDS011;55472;50.060;21.960;2022-10-17T09:28:52;9.40;;;4.63;;
68484;SDS011;55472;50.060;21.960;2022-10-17T09:31:24;13.20;;;4.35;;
68484;SDS011;55472;50.060;21.960;2022-10-17T09:33:56;12.02;;;4.50;;
68484;SDS011;55472;50.060;21.960;2022-10-17T09:36:29;11.75;;;4.35;;
68484;SDS011;55472;50.060;21.960;2022-10-17T09:39:04;9.85;;;4.03;;
68484;SDS011;55472;50.060;21.960;2022-10-17T09:41:49;13.17;;;5.13;;
68484;SDS011;55472;50.060;21.960;2022-10-17T09:44:27;7.35;;;4.05;;
68484;SDS011;55472;50.060;21.960;2022-10-17T09:49:59;9.93;;;4.30;;
68484;SDS011;55472;50.060;21.960;2022-10-17T09:52:33;10.63;;;4.90;;
68484;SDS011;55472;50.060;21.960;2022-10-17T09:55:15;7.13;;;4.10;;
68484;SDS011;55472;50.060;21.960;2022-10-17T09:58:00;9.57;;;4.00;;
68484;SDS011;55472;50.060;21.960;2022-10-17T10:00:29;9.57;;;4.68;;
68484;SDS011;55472;50.060;21.960;2022-10-17T10:08:34;12.90;;;5.60;;
68484;SDS011;55472;50.060;21.960;2022-10-17T10:11:16;12.27;;;4.57;;
68484;SDS011;55472;50.060;21.960;2022-10-17T10:13:56;8.05;;;4.15;;
68484;SDS011;55472;50.060;21.960;2022-10-17T10:17:01;9.85;;;4.40;;
68484;SDS011;55472;50.060;21.960;2022-10-17T10:19:30;9.32;;;4.25;;
68484;SDS011;55472;50.060;21.960;2022-10-17T10:22:20;8.67;;;4.53;;
68484;SDS011;55472;50.060;21.960;2022-10-17T10:27:35;11.70;;;5.75;;
68484;SDS011;55472;50.060;21.960;2022-10-17T10:30:04;11.02;;;4.78;;
68484;SDS011;55472;50.060;21.960;2022-10-17T10:32:32;9.25;;;4.85;;
68484;SDS011;55472;50.060;21.960;2022-10-17T10:37:38;12.02;;;4.45;;
68484;SDS011;55472;50.060;21.960;2022-10-17T10:42:51;8.52;;;4.38;;
68484;SDS011;55472;50.060;21.960;2022-10-17T10:45:23;8.18;;;4.18;;
68484;SDS011;55472;50.060;21.960;2022-10-17T10:48:21;8.57;;;4.37;;
68484;SDS011;55472;50.060;21.960;2022-10-17T10:54:16;9.27;;;4.75;;
68484;SDS011;55472;50.060;21.960;2022-10-17T10:56:48;8.45;;;4.30;;
68484;SDS011;55472;50.060;21.960;2022-10-17T11:04:50;8.30;;;4.27;;
68484;SDS011;55472;50.060;21.960;2022-10-17T11:09:54;10.88;;;4.90;;
68484;SDS011;55472;50.060;21.960;2022-10-17T11:26:18;12.18;;;4.45;;
68484;SDS011;55472;50.060;21.960;2022-10-17T11:28:56;9.35;;;4.32;;
68484;SDS011;55472;50.060;21.960;2022-10-17T11:31:30;11.87;;;4.53;;
68484;SDS011;55472;50.060;21.960;2022-10-17T11:34:06;10.80;;;4.47;;
68484;SDS011;55472;50.060;21.960;2022-10-17T11:36:43;12.15;;;4.93;;
68484;SDS011;55472;50.060;21.960;2022-10-17T11:39:16;10.25;;;4.90;;
68484;SDS011;55472;50.060;21.960;2022-10-17T11:42:08;12.82;;;5.13;;
68484;SDS011;55472;50.060;21.960;2022-10-17T11:44:41;9.23;;;4.27;;
68484;SDS011;55472;50.060;21.960;2022-10-17T11:51:11;9.43;;;4.40;;
68484;SDS011;55472;50.060;21.960;2022-10-17T11:53:11;9.10;;;4.10;;
68484;SDS011;55472;50.060;21.960;2022-10-17T11:55:41;8.63;;;3.90;;
68484;SDS011;55472;50.060;21.960;2022-10-17T11:58:26;8.33;;;4.20;;
68484;SDS011;55472;50.060;21.960;2022-10-17T12:01:33;8.50;;;4.00;;
68484;SDS011;55472;50.060;21.960;2022-10-17T12:04:15;11.32;;;4.03;;
68484;SDS011;55472;50.060;21.960;2022-10-17T12:12:44;8.07;;;4.27;;
68484;SDS011;55472;50.060;21.960;2022-10-17T12:17:39;8.30;;;4.30;;
68484;SDS011;55472;50.060;21.960;2022-10-17T12:25:47;8.00;;;4.03;;
68484;SDS011;55472;50.060;21.960;2022-10-17T12:28:24;8.63;;;4.38;;
68484;SDS011;55472;50.060;21.960;2022-10-17T12:44:34;11.70;;;4.70;;
68484;SDS011;55472;50.060;21.960;2022-10-17T12:49:36;8.30;;;4.97;;
68484;SDS011;55472;50.060;21.960;2022-10-17T13:00:05;8.60;;;4.78;;
68484;SDS011;55472;50.060;21.960;2022-10-17T13:03:07;9.07;;;4.63;;
68484;SDS011;55472;50.060;21.960;2022-10-17T13:05:52;11.30;;;4.50;;
68484;SDS011;55472;50.060;21.960;2022-10-17T13:08:33;10.80;;;4.18;;
68484;SDS011;55472;50.060;21.960;2022-10-17T13:11:07;8.10;;;3.85;;
68484;SDS011;55472;50.060;21.960;2022-10-17T13:19:26;8.90;;;4.47;;
68484;SDS011;55472;50.060;21.960;2022-10-17T13:22:09;9.77;;;4.50;;
68484;SDS011;55472;50.060;21.960;2022-10-17T13:24:51;7.70;;;4.53;;
68484;SDS011;55472;50.060;21.960;2022-10-17T13:27:30;8.68;;;4.40;;
68484;SDS011;55472;50.060;21.960;2022-10-17T13:29:59;9.00;;;4.90;;
68484;SDS011;55472;50.060;21.960;2022-10-17T13:32:41;11.27;;;5.10;;
68484;SDS011;55472;50.060;21.960;2022-10-17T13:35:10;11.73;;;4.50;;
68484;SDS011;55472;50.060;21.960;2022-10-17T13:37:42;10.23;;;4.47;;
68484;SDS011;55472;50.060;21.960;2022-10-17T13:40:14;10.65;;;4.63;;
68484;SDS011;55472;50.060;21.960;2022-10-17T13:42:46;12.82;;;4.70;;
68484;SDS011;55472;50.060;21.960;2022-10-17T13:45:15;9.30;;;4.63;;
68484;SDS011;55472;50.060;21.960;2022-10-17T13:47:53;12.00;;;5.00;;
68484;SDS011;55472;50.060;21.960;2022-10-17T13:53:35;10.63;;;4.60;;
68484;SDS011;55472;50.060;21.960;2022-10-17T13:56:03;12.02;;;5.97;;
68484;SDS011;55472;50.060;21.960;2022-10-17T13:58:44;14.60;;;4.43;;
68484;SDS011;55472;50.060;21.960;2022-10-17T14:01:22;12.10;;;4.65;;
68484;SDS011;55472;50.060;21.960;2022-10-17T14:03:52;11.30;;;4.55;;
68484;SDS011;55472;50.060;21.960;2022-10-17T14:06:22;9.55;;;4.18;;
68484;SDS011;55472;50.060;21.960;2022-10-17T14:08:52;8.90;;;4.70;;
68484;SDS011;55472;50.060;21.960;2022-10-17T14:11:29;12.67;;;4.70;;
68484;SDS011;55472;50.060;21.960;2022-10-17T14:14:03;8.20;;;4.53;;
68484;SDS011;55472;50.060;21.960;2022-10-17T14:16:44;11.27;;;4.72;;
68484;SDS011;55472;50.060;21.960;2022-10-17T14:19:18;10.98;;;5.47;;
68484;SDS011;55472;50.060;21.960;2022-10-17T14:21:51;9.77;;;4.40;;
68484;SDS011;55472;50.060;21.960;2022-10-17T14:29:24;9.00;;;4.63;;
68484;SDS011;55472;50.060;21.960;2022-10-17T14:31:56;15.27;;;4.70;;
68484;SDS011;55472;50.060;21.960;2022-10-17T14:34:33;11.55;;;4.68;;
68484;SDS011;55472;50.060;21.960;2022-10-17T14:37:07;13.45;;;5.07;;
68484;SDS011;55472;50.060;21.960;2022-10-17T14:39:36;10.85;;;4.72;;
68484;SDS011;55472;50.060;21.960;2022-10-17T14:42:02;12.15;;;4.72;;
68484;SDS011;55472;50.060;21.960;2022-10-17T14:44:30;12.73;;;4.90;;
68484;SDS011;55472;50.060;21.960;2022-10-17T14:46:59;17.55;;;5.13;;
68484;SDS011;55472;50.060;21.960;2022-10-17T14:49:32;10.52;;;4.57;;
68484;SDS011;55472;50.060;21.960;2022-10-17T14:54:48;9.93;;;5.10;;
68484;SDS011;55472;50.060;21.960;2022-10-17T14:57:16;10.77;;;4.70;;
68484;SDS011;55472;50.060;21.960;2022-10-17T14:59:43;11.43;;;4.88;;
68484;SDS011;55472;50.060;21.960;2022-10-17T15:02:10;10.25;;;5.18;;
68484;SDS011;55472;50.060;21.960;2022-10-17T15:04:36;10.75;;;4.75;;
68484;SDS011;55472;50.060;21.960;2022-10-17T15:07:02;10.35;;;5.38;;
68484;SDS011;55472;50.060;21.960;2022-10-17T15:09:28;13.50;;;5.20;;
68484;SDS011;55472;50.060;21.960;2022-10-17T15:11:54;13.35;;;5.95;;
68484;SDS011;55472;50.060;21.960;2022-10-17T15:14:25;16.55;;;6.75;;
68484;SDS011;55472;50.060;21.960;2022-10-17T15:16:51;22.43;;;7.50;;
68484;SDS011;55472;50.060;21.960;2022-10-17T15:19:17;17.70;;;7.43;;
68484;SDS011;55472;50.060;21.960;2022-10-17T15:21:42;17.80;;;7.07;;
68484;SDS011;55472;50.060;21.960;2022-10-17T15:24:08;18.30;;;7.10;;
68484;SDS011;55472;50.060;21.960;2022-10-17T15:26:34;16.43;;;6.83;;
68484;SDS011;55472;50.060;21.960;2022-10-17T15:29:02;17.05;;;7.30;;
68484;SDS011;55472;50.060;21.960;2022-10-17T15:31:28;15.27;;;6.97;;
68484;SDS011;55472;50.060;21.960;2022-10-17T15:33:55;23.60;;;10.93;;
68484;SDS011;55472;50.060;21.960;2022-10-17T15:36:24;18.45;;;9.75;;
68484;SDS011;55472;50.060;21.960;2022-10-17T15:38:56;19.07;;;8.60;;
68484;SDS011;55472;50.060;21.960;2022-10-17T15:41:25;16.92;;;7.53;;
68484;SDS011;55472;50.060;21.960;2022-10-17T15:43:53;28.33;;;11.68;;
68484;SDS011;55472;50.060;21.960;2022-10-17T15:46:23;21.00;;;7.97;;
68484;SDS011;55472;50.060;21.960;2022-10-17T15:48:55;20.30;;;8.05;;
68484;SDS011;55472;50.060;21.960;2022-10-17T15:51:26;16.13;;;7.57;;
68484;SDS011;55472;50.060;21.960;2022-10-17T15:53:52;14.50;;;6.95;;
68484;SDS011;55472;50.060;21.960;2022-10-17T15:56:25;21.08;;;8.52;;
68484;SDS011;55472;50.060;21.960;2022-10-17T15:59:04;17.90;;;7.05;;
68484;SDS011;55472;50.060;21.960;2022-10-17T16:01:37;15.05;;;7.10;;
68484;SDS011;55472;50.060;21.960;2022-10-17T16:04:03;17.73;;;6.20;;
68484;SDS011;55472;50.060;21.960;2022-10-17T16:06:29;16.35;;;6.30;;
68484;SDS011;55472;50.060;21.960;2022-10-17T16:08:55;15.15;;;6.05;;
68484;SDS011;55472;50.060;21.960;2022-10-17T16:11:29;14.57;;;6.07;;
68484;SDS011;55472;50.060;21.960;2022-10-17T16:14:04;15.10;;;6.40;;
68484;SDS011;55472;50.060;21.960;2022-10-17T16:16:33;12.00;;;6.05;;
68484;SDS011;55472;50.060;21.960;2022-10-17T16:19:00;13.60;;;6.32;;
68484;SDS011;55472;50.060;21.960;2022-10-17T16:21:27;17.85;;;7.32;;
68484;SDS011;55472;50.060;21.960;2022-10-17T16:23:56;19.45;;;8.30;;
68484;SDS011;55472;50.060;21.960;2022-10-17T16:26:22;21.73;;;8.70;;
68484;SDS011;55472;50.060;21.960;2022-10-17T16:28:49;24.95;;;10.13;;
68484;SDS011;55472;50.060;21.960;2022-10-17T16:31:16;24.02;;;9.60;;
68484;SDS011;55472;50.060;21.960;2022-10-17T16:33:53;23.98;;;9.55;;
68484;SDS011;55472;50.060;21.960;2022-10-17T16:36:21;18.10;;;8.47;;
68484;SDS011;55472;50.060;21.960;2022-10-17T16:38:47;23.90;;;10.00;;
68484;SDS011;55472;50.060;21.960;2022-10-17T16:43:54;17.90;;;8.40;;
68484;SDS011;55472;50.060;21.960;2022-10-17T16:46:23;18.23;;;8.07;;
68484;SDS011;55472;50.060;21.960;2022-10-17T16:48:51;21.43;;;8.97;;
68484;SDS011;55472;50.060;21.960;2022-10-17T16:51:18;19.67;;;8.05;;
68484;SDS011;55472;50.060;21.960;2022-10-17T16:53:45;18.25;;;8.57;;
68484;SDS011;55472;50.060;21.960;2022-10-17T16:56:15;18.27;;;8.20;;
68484;SDS011;55472;50.060;21.960;2022-10-17T16:58:43;18.25;;;8.40;;
68484;SDS011;55472;50.060;21.960;2022-10-17T17:01:11;20.33;;;8.70;;
68484;SDS011;55472;50.060;21.960;2022-10-17T17:03:40;20.67;;;9.38;;
68484;SDS011;55472;50.060;21.960;2022-10-17T17:06:12;21.35;;;9.88;;
68484;SDS011;55472;50.060;21.960;2022-10-17T17:08:49;21.63;;;9.38;;
68484;SDS011;55472;50.060;21.960;2022-10-17T17:11:18;22.48;;;9.30;;
68484;SDS011;55472;50.060;21.960;2022-10-17T17:13:46;23.20;;;9.40;;
68484;SDS011;55472;50.060;21.960;2022-10-17T17:16:19;22.27;;;9.77;;
68484;SDS011;55472;50.060;21.960;2022-10-17T17:18:47;21.05;;;9.65;;
68484;SDS011;55472;50.060;21.960;2022-10-17T17:21:16;28.38;;;10.38;;
68484;SDS011;55472;50.060;21.960;2022-10-17T17:23:42;20.75;;;9.63;;
68484;SDS011;55472;50.060;21.960;2022-10-17T17:26:09;20.60;;;9.50;;
68484;SDS011;55472;50.060;21.960;2022-10-17T17:28:40;23.55;;;9.60;;